Terminal Aerodrome Forecast
Issued by NWS Austin/San Antonio, TX

Home | Current Version | Previous Version | Text Only | Print | Product List | Glossary On
Versions: 1 2 3 4 5 6 7 8 9 10 11 12 13 14 15 16 17 18 19 20 21 22
000
FTUS44 KEWX 280526
TAFDRT
TAF
KDRT 280526Z 2806/2906 12010KT P6SM SCT050
     FM280800 11010KT P6SM OVC015
     FM281100 11010KT P6SM OVC007
     FM281500 12015KT P6SM BKN015
     FM282100 13015KT P6SM BKN050 PROB30 2902/2906 -TSRA OVC040CB=

USA.gov is the U.S. government's official web portal to all federal, state and local government web resources and services.